Time;durP1;ratioP1;P1;durP2;ratioP2;P2;SDS_P1;SDS_P2;PMS_P1;PMS_P2;Temp;Humidity;BMP_temperature;BMP_pressure;BME280_temperature;BME280_humidity;BME280_pressure;Samples;Min_cycle;Max_cycle;Signal;HPM_P1;HPM_P2
2022/11/27 00:00:15;;;;;;;;;;;;;;;3.26;91.91;101205.88;1088491;54;20103;-83
2022/11/27 00:01:22;;;;;;;33.35;17.02;;;;;;;3.14;91.54;101203.75;1092115;46;19934;-82
2022/11/27 00:02:28;;;;;;;19.95;15.27;;;;;;;3.27;91.05;101204.06;1088336;54;20035;-82
2022/11/27 00:03:38;;;;;;;20.95;14.63;;;;;;;3.35;90.77;101198.44;1088262;54;20038;-83
2022/11/27 00:04:46;;;;;;;23.75;14.82;;;;;;;3.36;90.38;101198.34;1094165;39;20953;-85
2022/11/27 00:05:59;;;;;;;30.38;16.15;;;;;;;3.18;89.85;101208.00;1088263;54;20057;-83
2022/11/27 00:07:03;;;;;;;52.85;18.08;;;;;;;3.11;90.67;101206.56;1088303;54;20030;-82
2022/11/27 00:09:33;;;;;;;19.88;14.68;;;;;;;3.20;90.55;101203.50;1088158;54;20041;-83
2022/11/27 00:10:34;;;;;;;29.35;15.13;;;;;;;3.19;90.48;101196.50;1088405;54;20037;-82
2022/11/27 00:11:44;;;;;;;27.80;16.17;;;;;;;3.18;90.26;101205.34;1088553;54;20788;-83
2022/11/27 00:12:48;;;;;;;37.60;16.75;;;;;;;3.07;90.45;101202.31;1088509;54;20101;-83
2022/11/27 00:13:54;;;;;;;23.83;15.63;;;;;;;3.07;90.80;101200.53;1088574;54;20030;-83
2022/11/27 00:14:55;;;;;;;33.55;17.75;;;;;;;3.03;90.95;101203.38;1088545;54;20026;-83
2022/11/27 00:16:00;;;;;;;27.55;15.98;;;;;;;2.99;91.05;101201.81;1088616;54;20046;-84
2022/11/27 00:17:01;;;;;;;20.35;16.08;;;;;;;3.13;90.74;101196.75;1089898;46;20027;-83
2022/11/27 00:18:06;;;;;;;20.98;14.50;;;;;;;3.26;90.50;101194.41;1088548;54;20021;-85
2022/11/27 00:19:09;;;;;;;16.73;13.60;;;;;;;3.34;89.92;101194.06;1089570;46;20027;-83
2022/11/27 00:20:15;;;;;;;16.80;11.75;;;;;;;3.43;89.59;101193.66;1093087;46;20037;-81
2022/11/27 00:21:21;;;;;;;14.10;11.05;;;;;;;3.50;89.22;101179.22;1088470;54;20026;-82
2022/11/27 00:22:26;;;;;;;15.35;12.05;;;;;;;3.55;88.83;101193.09;1089031;46;20030;-82
2022/11/27 00:23:28;;;;;;;22.52;11.85;;;;;;;3.57;88.75;101188.59;1088964;46;20027;-81
2022/11/27 00:24:32;;;;;;;16.70;12.15;;;;;;;3.64;88.73;101193.59;1088311;54;20045;-81
2022/11/27 00:25:34;;;;;;;14.10;10.18;;;;;;;3.64;88.22;101189.16;1088392;54;20030;-83
2022/11/27 00:26:38;;;;;;;20.67;12.75;;;;;;;3.64;88.32;101186.50;1093427;46;20030;-82
2022/11/27 00:27:40;;;;;;;14.07;11.40;;;;;;;3.67;87.87;101185.53;1090134;46;20015;-82
2022/11/27 00:28:45;;;;;;;14.13;10.88;;;;;;;3.70;88.03;101188.00;1091641;46;20068;-82
2022/11/27 00:29:46;;;;;;;19.55;11.23;;;;;;;3.67;87.48;101185.53;1088336;54;20034;-83
2022/11/27 00:30:51;;;;;;;18.40;12.45;;;;;;;3.66;87.36;101184.66;1088310;54;20015;-82
2022/11/27 00:31:55;;;;;;;37.15;13.05;;;;;;;3.59;87.70;101178.78;1088066;54;20031;-82
2022/11/27 00:32:57;;;;;;;19.52;11.43;;;;;;;3.59;87.78;101183.22;1088475;47;20038;-82
2022/11/27 00:34:05;;;;;;;21.58;11.40;;;;;;;3.58;87.63;101186.78;1093732;46;20037;-82
2022/11/27 00:35:08;;;;;;;24.10;11.45;;;;;;;3.64;87.50;101183.00;1091250;46;20022;-82
2022/11/27 00:36:13;;;;;;;18.85;11.48;;;;;;;3.67;87.73;101183.72;1089990;46;20033;-82
2022/11/27 00:37:18;;;;;;;16.30;11.85;;;;;;;3.68;87.60;101182.78;1088527;46;20014;-83
2022/11/27 00:38:25;;;;;;;14.38;11.85;;;;;;;3.68;87.29;101181.94;1089895;46;20038;-83
2022/11/27 00:39:27;;;;;;;14.20;10.75;;;;;;;3.69;87.35;101173.94;1091584;46;20042;-82
2022/11/27 00:40:31;;;;;;;16.73;11.05;;;;;;;3.72;87.43;101168.50;1088212;54;20030;-83
2022/11/27 00:41:34;;;;;;;25.23;11.80;;;;;;;3.69;87.18;101170.41;1089335;46;20015;-82
2022/11/27 00:42:43;;;;;;;14.90;11.23;;;;;;;3.71;87.22;101160.63;1088274;54;20025;-82
2022/11/27 00:43:45;;;;;;;16.20;10.10;;;;;;;3.71;86.95;101168.56;1088533;46;20029;-82
2022/11/27 00:44:50;;;;;;;44.65;12.45;;;;;;;3.65;87.14;101166.22;1088740;46;20054;-82
2022/11/27 00:45:52;;;;;;;14.93;10.75;;;;;;;3.67;87.01;101162.56;1089161;46;20035;-82
2022/11/27 00:46:56;;;;;;;17.15;9.90;;;;;;;3.68;87.00;101168.72;1088210;54;20030;-81
2022/11/27 00:47:57;;;;;;;12.48;9.80;;;;;;;3.72;87.04;101154.41;1088507;46;20018;-83
2022/11/27 00:49:03;;;;;;;23.83;11.50;;;;;;;3.55;86.91;101153.44;1088186;54;20030;-83
2022/11/27 00:50:09;;;;;;;19.08;12.40;;;;;;;3.55;87.13;101157.84;1088795;46;20015;-82
2022/11/27 00:51:14;;;;;;;19.05;11.60;;;;;;;3.55;86.97;101150.78;1090226;46;20042;-81
2022/11/27 00:52:21;;;;;;;14.02;10.80;;;;;;;3.61;86.95;101154.94;1088313;54;20026;-82
2022/11/27 00:53:22;;;;;;;27.65;12.40;;;;;;;3.52;87.17;101158.00;1089984;46;20027;-82
2022/11/27 00:54:26;;;;;;;37.38;15.10;;;;;;;3.27;88.03;101152.06;1088161;54;20033;-82
2022/11/27 00:55:28;;;;;;;51.05;15.15;;;;;;;3.23;88.00;101157.56;1089326;46;20034;-82
2022/11/27 00:56:34;;;;;;;35.25;13.70;;;;;;;3.31;87.96;101159.88;1088808;46;20033;-83
2022/11/27 00:57:36;;;;;;;18.33;12.98;;;;;;;3.41;87.62;101153.19;1088181;54;20030;-82
2022/11/27 00:58:40;;;;;;;16.45;12.63;;;;;;;3.46;87.24;101153.00;1088153;54;20014;-82
2022/11/27 00:59:45;;;;;;;18.95;13.38;;;;;;;3.51;87.16;101154.50;1088151;54;20066;-81
2022/11/27 01:00:53;;;;;;;19.30;12.20;;;;;;;3.55;86.89;101148.16;1089603;46;20100;-83
2022/11/27 01:01:57;;;;;;;14.65;10.85;;;;;;;3.61;86.70;101152.28;1091972;39;20685;-82
2022/11/27 01:02:59;;;;;;;13.38;10.60;;;;;;;3.65;86.57;101145.06;1088318;46;20039;-82
2022/11/27 01:04:05;;;;;;;17.13;11.10;;;;;;;3.69;86.50;101149.25;1090642;46;20042;-82
2022/11/27 01:05:08;;;;;;;18.92;11.10;;;;;;;3.68;86.34;101139.63;1088140;54;20041;-81
2022/11/27 01:06:13;;;;;;;24.80;12.18;;;;;;;3.61;86.09;101136.41;1088767;46;20082;-82
2022/11/27 01:07:17;;;;;;;23.45;12.27;;;;;;;3.55;86.00;101134.03;1088011;54;20050;-81
2022/11/27 01:08:21;;;;;;;22.23;11.93;;;;;;;3.50;86.58;101136.91;1088027;54;20058;-82
2022/11/27 01:09:23;;;;;;;19.13;11.30;;;;;;;3.49;86.56;101127.28;1088097;54;20034;-83
2022/11/27 01:10:28;;;;;;;14.02;10.85;;;;;;;3.50;86.33;101128.97;1088118;54;20034;-82
2022/11/27 01:11:31;;;;;;;16.55;11.02;;;;;;;3.52;86.32;101129.78;1088254;46;20037;-82
2022/11/27 01:12:36;;;;;;;15.95;11.00;;;;;;;3.53;86.41;101131.47;1088351;46;20045;-83
2022/11/27 01:13:43;;;;;;;32.13;12.05;;;;;;;3.52;86.44;101131.56;1088077;54;20045;-83
2022/11/27 01:14:49;;;;;;;14.90;11.15;;;;;;;3.51;86.13;101130.69;1088610;46;20037;-82
2022/11/27 01:15:58;;;;;;;12.73;10.40;;;;;;;3.54;86.03;101132.34;1098696;39;20203;-81
2022/11/27 01:17:08;;;;;;;17.75;10.02;;;;;;;3.51;86.13;101128.06;1088155;54;20065;-82
2022/11/27 01:18:09;;;;;;;17.25;10.00;;;;;;;3.50;85.97;101123.69;1090663;46;20050;-82
2022/11/27 01:19:15;;;;;;;15.65;10.10;;;;;;;3.52;85.88;101124.47;1088102;54;20031;-84
2022/11/27 01:20:17;;;;;;;16.48;10.73;;;;;;;3.41;86.06;101119.72;1089194;46;20014;-82
2022/11/27 01:21:23;;;;;;;14.75;11.00;;;;;;;3.41;86.10;101121.47;1088095;54;20041;-82
2022/11/27 01:22:28;;;;;;;20.27;13.18;;;;;;;3.29;86.90;101117.63;1090148;46;20038;-82
2022/11/27 01:23:34;;;;;;;21.08;12.73;;;;;;;3.23;87.15;101118.78;1089134;46;20023;-81
2022/11/27 01:24:35;;;;;;;18.55;13.73;;;;;;;3.12;87.52;101123.69;1090542;46;20038;-81
2022/11/27 01:25:40;;;;;;;24.95;13.93;;;;;;;2.99;88.14;101125.19;1087974;54;20021;-82
2022/11/27 01:26:42;;;;;;;22.67;14.38;;;;;;;2.95;88.53;101124.47;1089095;46;20022;-82
2022/11/27 01:27:47;;;;;;;22.40;14.50;;;;;;;2.94;88.85;101125.41;1088340;46;20031;-82
2022/11/27 01:28:51;;;;;;;22.40;13.98;;;;;;;2.96;89.02;101119.13;1087967;54;20030;-82
2022/11/27 01:29:55;;;;;;;23.73;14.18;;;;;;;2.95;88.76;101125.31;1088754;46;20034;-82
2022/11/27 01:30:57;;;;;;;20.13;14.27;;;;;;;2.96;88.80;101121.75;1088440;46;20094;-82
2022/11/27 01:32:01;;;;;;;32.17;13.75;;;;;;;2.91;89.13;101120.25;1087932;54;20030;-82
2022/11/27 01:33:02;;;;;;;22.50;13.23;;;;;;;2.90;89.16;101122.03;1087993;54;20019;-82
2022/11/27 01:34:08;;;;;;;25.75;14.93;;;;;;;2.90;88.98;101122.03;1090526;46;20046;-82
2022/11/27 01:35:10;;;;;;;18.50;13.55;;;;;;;3.01;88.42;101128.63;1087951;54;21180;-82
2022/11/27 01:36:18;;;;;;;23.58;13.38;;;;;;;3.01;88.50;101112.78;1087979;54;20022;-82
2022/11/27 01:37:19;;;;;;;23.83;14.20;;;;;;;2.93;88.60;101116.59;1088048;54;20049;-83
2022/11/27 01:38:27;;;;;;;24.17;13.93;;;;;;;2.92;88.88;101114.03;1088153;54;20029;-82
2022/11/27 01:39:29;;;;;;;27.63;14.95;;;;;;;2.83;89.20;101109.19;1088186;54;20018;-83
2022/11/27 01:40:33;;;;;;;29.60;15.25;;;;;;;2.83;89.42;101111.81;1091458;46;20037;-82
2022/11/27 01:41:38;;;;;;;33.00;14.73;;;;;;;2.75;89.66;101106.88;1088977;46;20061;-81
2022/11/27 01:42:42;;;;;;;32.72;14.85;;;;;;;2.78;89.46;101106.75;1089030;46;20123;-82
2022/11/27 01:43:46;;;;;;;24.95;14.93;;;;;;;2.74;89.86;101106.03;1087853;54;20038;-82
2022/11/27 01:44:56;;;;;;;37.17;15.38;;;;;;;2.73;89.71;101103.47;1087824;54;20011;-81
2022/11/27 01:45:58;;;;;;;27.52;14.77;;;;;;;2.72;89.97;101097.31;1087930;54;20038;-82
2022/11/27 01:47:05;;;;;;;38.42;15.20;;;;;;;2.74;89.99;101099.91;1089066;46;20074;-83
2022/11/27 01:48:13;;;;;;;20.58;13.88;;;;;;;2.80;89.72;101094.34;1087849;54;20034;-83
2022/11/27 01:49:23;;;;;;;28.42;14.02;;;;;;;2.84;89.70;101095.03;1087737;54;20037;-82
2022/11/27 01:50:31;;;;;;;19.73;14.15;;;;;;;2.86;89.71;101091.41;1087857;54;20045;-82
2022/11/27 01:51:34;;;;;;;37.17;14.65;;;;;;;2.79;89.90;101089.97;1089527;46;20022;-81
2022/11/27 01:52:43;;;;;;;25.17;14.20;;;;;;;2.81;89.79;101088.13;1087982;54;20057;-81
2022/11/27 01:53:48;;;;;;;19.58;13.55;;;;;;;2.91;89.62;101091.19;1087966;54;20054;-81
2022/11/27 01:54:57;;;;;;;32.60;14.82;;;;;;;2.93;89.76;101089.34;1091413;46;20030;-81
2022/11/27 01:56:00;;;;;;;22.90;14.38;;;;;;;2.99;89.49;101093.50;1087823;54;20035;-81
2022/11/27 01:57:09;;;;;;;27.55;14.52;;;;;;;2.98;89.40;101087.34;1087871;54;20011;-82
2022/11/27 01:58:16;;;;;;;37.58;15.50;;;;;;;2.83;90.20;101082.75;1090160;46;20026;-81
2022/11/27 01:59:20;;;;;;;33.88;15.77;;;;;;;2.69;90.77;101086.03;1087851;54;20027;-81
2022/11/27 02:00:25;;;;;;;17.80;14.18;;;;;;;2.89;90.09;101078.06;1088903;46;20015;-81
2022/11/27 02:01:27;;;;;;;19.65;13.60;;;;;;;2.93;89.95;101079.63;1088237;46;20034;-82
2022/11/27 02:02:31;;;;;;;21.10;13.27;;;;;;;3.00;89.59;101079.34;1088368;46;20035;-82
2022/11/27 02:03:33;;;;;;;32.40;14.00;;;;;;;2.99;89.67;101083.78;1089034;46;20050;-82
2022/11/27 02:04:37;;;;;;;21.83;14.05;;;;;;;3.03;89.68;101084.47;1087854;54;20034;-81
2022/11/27 02:05:41;;;;;;;21.50;13.65;;;;;;;3.04;89.65;101080.91;1087821;54;20035;-81
2022/11/27 02:06:43;;;;;;;15.68;12.82;;;;;;;3.11;89.26;101077.09;1087959;54;20030;-81
2022/11/27 02:07:48;;;;;;;51.30;17.10;;;;;;;3.05;88.79;101072.94;1087881;54;20031;-84
2022/11/27 02:08:54;;;;;;;41.72;17.92;;;;;;;3.01;88.33;101071.34;1094969;46;20027;-82
2022/11/27 02:09:58;;;;;;;23.95;15.88;;;;;;;3.05;88.87;101074.72;1087971;54;20018;-83
2022/11/27 02:11:08;;;;;;;21.95;14.75;;;;;;;3.07;88.91;101076.34;1087850;54;20057;-81
2022/11/27 02:12:23;;;;;;;38.45;16.33;;;;;;;2.99;88.81;101073.19;1087867;54;20038;-80
2022/11/27 02:13:33;;;;;;;42.03;17.10;;;;;;;2.92;88.90;101075.28;1087917;54;20030;-82
2022/11/27 02:14:42;;;;;;;47.70;18.98;;;;;;;2.85;88.77;101076.47;1087964;54;20061;-81
2022/11/27 02:15:52;;;;;;;39.47;16.90;;;;;;;2.74;89.38;101068.22;1088014;54;20345;-81
2022/11/27 02:17:01;;;;;;;39.05;17.00;;;;;;;2.81;89.86;101067.00;1087642;54;20026;-82
2022/11/27 02:18:16;;;;;;;21.63;14.77;;;;;;;2.87;89.52;101069.34;1087843;54;20030;-81
2022/11/27 02:19:33;;;;;;;32.05;16.08;;;;;;;2.89;89.30;101074.56;1089257;46;20038;-81
2022/11/27 02:20:52;;;;;;;31.75;15.40;;;;;;;2.91;89.55;101073.56;1087902;54;20094;-81
2022/11/27 02:21:58;;;;;;;41.97;17.70;;;;;;;2.90;89.41;101077.13;1087761;54;20037;-81
2022/11/27 02:23:19;;;;;;;49.35;17.92;;;;;;;2.85;89.54;101076.47;1087903;47;20030;-81
2022/11/27 02:24:42;;;;;;;32.33;17.50;;;;;;;2.86;89.43;101077.34;1087700;54;20034;-81
2022/11/27 02:25:56;;;;;;;27.10;15.65;;;;;;;2.90;89.30;101079.78;1087854;54;20055;-81
2022/11/27 02:27:33;;;;;;;22.40;13.75;;;;;;;2.92;89.19;101074.41;1088714;46;20014;-81
2022/11/27 02:28:51;;;;;;;22.25;13.98;;;;;;;2.94;88.94;101072.56;1088402;47;20031;-81
2022/11/27 02:29:59;;;;;;;18.35;14.05;;;;;;;3.00;89.08;101074.06;1088933;47;20059;-82
2022/11/27 02:31:08;;;;;;;24.30;13.45;;;;;;;3.00;88.20;101074.91;1087779;54;20027;-80
2022/11/27 02:32:18;;;;;;;21.33;12.50;;;;;;;3.04;88.04;101078.28;1090678;46;20061;-81
2022/11/27 02:33:20;;;;;;;23.38;13.13;;;;;;;3.01;87.93;101070.50;1087849;54;20042;-82
2022/11/27 02:34:28;;;;;;;21.13;12.80;;;;;;;3.04;87.84;101076.50;1090076;47;20030;-81
2022/11/27 02:35:38;;;;;;;17.90;11.45;;;;;;;2.97;87.61;101073.28;1089827;47;20074;-81
2022/11/27 02:36:45;;;;;;;18.70;12.93;;;;;;;3.02;87.93;101066.94;1089882;47;20038;-81
2022/11/27 02:37:50;;;;;;;17.35;11.95;;;;;;;2.97;87.63;101075.91;1087754;54;20154;-81
2022/11/27 02:39:00;;;;;;;61.47;16.25;;;;;;;2.86;87.07;101088.75;1087555;54;20034;-81
2022/11/27 02:40:04;;;;;;;21.50;13.55;;;;;;;2.86;87.57;101083.47;1087765;54;20065;-80
2022/11/27 02:41:14;;;;;;;20.35;14.00;;;;;;;2.87;87.83;101090.47;1087755;54;20034;-81
2022/11/27 02:42:18;;;;;;;22.10;14.35;;;;;;;2.86;87.55;101077.34;1091080;47;20038;-82
2022/11/27 02:43:30;;;;;;;23.40;13.95;;;;;;;2.87;87.81;101081.72;1087848;54;20026;-81
2022/11/27 02:44:37;;;;;;;17.95;12.25;;;;;;;2.88;87.77;101076.34;1091301;47;20053;-81
2022/11/27 02:45:43;;;;;;;22.55;12.43;;;;;;;2.93;87.68;101081.41;1087682;54;20049;-81
2022/11/27 02:46:47;;;;;;;44.80;14.35;;;;;;;2.89;87.48;101080.72;1088277;47;20038;-81
2022/11/27 02:47:52;;;;;;;44.22;14.48;;;;;;;2.88;87.27;101080.78;1087705;54;20034;-81
2022/11/27 02:48:57;;;;;;;34.03;14.10;;;;;;;2.84;87.41;101076.56;1087707;54;20054;-81
2022/11/27 02:50:04;;;;;;;19.85;13.98;;;;;;;2.80;87.57;101076.69;1087765;54;20030;-82
2022/11/27 02:51:07;;;;;;;78.03;18.08;;;;;;;2.74;87.12;101081.41;1087877;47;20035;-81
2022/11/27 02:52:14;;;;;;;63.80;18.67;;;;;;;2.61;87.82;101074.03;1090488;47;20030;-81
2022/11/27 02:53:21;;;;;;;22.98;15.55;;;;;;;2.61;87.92;101068.75;1092038;47;20037;-83
2022/11/27 02:54:28;;;;;;;61.45;16.70;;;;;;;2.60;87.87;101072.31;1087838;54;20049;-81
2022/11/27 02:55:37;;;;;;;34.75;15.00;;;;;;;2.67;88.28;101064.09;1087770;54;20030;-83
2022/11/27 02:56:40;;;;;;;44.00;14.80;;;;;;;2.67;88.19;101072.03;1088608;47;20035;-82
2022/11/27 02:57:46;;;;;;;30.17;13.98;;;;;;;2.71;88.07;101063.06;1088468;47;20030;-82
2022/11/27 02:58:50;;;;;;;49.30;15.88;;;;;;;2.61;87.97;101067.88;1087724;47;20023;-83
2022/11/27 02:59:58;;;;;;;50.08;16.02;;;;;;;2.55;87.93;101071.63;1087643;54;20034;-81
2022/11/27 03:01:02;;;;;;;77.75;18.90;;;;;;;2.45;88.01;101073.84;1087802;54;20042;-82
2022/11/27 03:02:11;;;;;;;36.53;17.70;;;;;;;2.47;88.31;101071.13;1087878;54;20033;-82
2022/11/27 03:03:17;;;;;;;57.25;17.30;;;;;;;2.39;88.52;101073.25;1088030;54;20784;-82
2022/11/27 03:04:26;;;;;;;54.70;16.95;;;;;;;2.39;88.49;101078.53;1089445;39;20976;-83
2022/11/27 03:05:31;;;;;;;40.72;17.42;;;;;;;2.36;88.89;101083.97;1087941;54;20031;-82
2022/11/27 03:06:42;;;;;;;25.45;14.98;;;;;;;2.42;89.05;101073.97;1087936;54;20027;-83
2022/11/27 03:07:51;;;;;;;32.25;15.23;;;;;;;2.45;89.39;101075.63;1087978;54;20038;-82
2022/11/27 03:08:57;;;;;;;29.45;15.38;;;;;;;2.45;89.16;101068.56;1087846;54;20712;-81
2022/11/27 03:10:08;;;;;;;21.00;14.18;;;;;;;2.54;88.97;101061.16;1087949;54;20038;-81
2022/11/27 03:11:11;;;;;;;22.50;14.48;;;;;;;2.57;89.03;101069.78;1088770;47;20054;-81
2022/11/27 03:12:18;;;;;;;21.85;13.73;;;;;;;2.62;88.64;101074.88;1087856;54;20030;-82
2022/11/27 03:13:20;;;;;;;19.48;13.57;;;;;;;2.64;88.39;101076.53;1087720;54;20883;-80
2022/11/27 03:14:24;;;;;;;41.63;16.63;;;;;;;2.59;88.21;101077.66;1089486;47;20022;-84
2022/11/27 03:15:38;;;;;;;22.73;14.45;;;;;;;2.57;88.23;101077.72;1088297;54;20022;-83
2022/11/27 03:16:49;;;;;;;24.48;14.38;;;;;;;2.57;88.26;101075.06;1088278;54;20015;-84
2022/11/27 03:20:15;;;;;;;26.92;14.20;;;;;;;2.60;88.57;101072.31;1087880;54;20026;-83
2022/11/27 03:21:25;;;;;;;35.60;14.70;;;;;;;2.56;88.19;101062.78;1087528;54;20035;-83
2022/11/27 03:22:30;;;;;;;37.22;15.50;;;;;;;2.52;87.86;101058.59;1087872;54;20018;-83
2022/11/27 03:23:32;;;;;;;37.35;15.98;;;;;;;2.43;88.01;101066.94;1096678;39;20759;-84
2022/11/27 03:24:37;;;;;;;26.95;15.48;;;;;;;2.47;88.36;101071.13;1087912;54;20053;-83
2022/11/27 03:25:38;;;;;;;20.02;14.70;;;;;;;2.53;88.71;101054.16;1087959;54;20030;-82
2022/11/27 03:26:44;;;;;;;21.83;13.50;;;;;;;2.56;88.46;101054.88;1088349;47;20732;-83
2022/11/27 03:27:52;;;;;;;25.50;12.68;;;;;;;2.54;88.15;101050.59;1087993;54;20038;-82
2022/11/27 03:28:58;;;;;;;23.25;13.40;;;;;;;2.54;88.00;101051.47;1088156;54;20033;-82
2022/11/27 03:30:02;;;;;;;35.63;14.23;;;;;;;2.48;87.92;101052.59;1088058;54;20030;-83
2022/11/27 03:34:58;;;;;;;25.17;13.77;;;;;;;2.21;88.73;101048.53;1087995;46;20019;-82
2022/11/27 03:35:59;;;;;;;19.30;13.95;;;;;;;2.27;89.02;101054.38;1087955;54;20026;-82
2022/11/27 03:37:04;;;;;;;23.38;13.27;;;;;;;2.33;88.91;101067.31;1087900;54;20030;-82
2022/11/27 03:38:05;;;;;;;21.10;12.75;;;;;;;2.35;88.97;101067.25;1089765;46;20041;-83
2022/11/27 03:39:10;;;;;;;21.33;12.73;;;;;;;2.37;88.65;101060.13;1089072;46;20038;-81
2022/11/27 03:40:13;;;;;;;34.28;14.15;;;;;;;2.35;88.12;101067.25;1088037;54;20034;-81
2022/11/27 03:41:26;;;;;;;19.92;13.45;;;;;;;2.37;88.80;101061.91;1087931;54;20030;-82
2022/11/27 03:42:33;;;;;;;29.05;13.93;;;;;;;2.32;88.36;101062.97;1087990;54;20054;-82
2022/11/27 03:43:43;;;;;;;17.10;12.30;;;;;;;2.38;88.46;101060.97;1087960;54;20069;-81
2022/11/27 03:44:52;;;;;;;27.27;13.60;;;;;;;2.33;88.25;101064.69;1088652;46;20058;-82
2022/11/27 03:46:01;;;;;;;30.35;14.60;;;;;;;2.30;88.37;101063.97;1087974;54;20027;-82
2022/11/27 03:47:11;;;;;;;31.98;13.88;;;;;;;2.29;88.21;101057.81;1088164;46;20035;-82
2022/11/27 03:48:25;;;;;;;29.48;14.38;;;;;;;2.20;87.94;101062.66;1088036;54;20031;-81
2022/11/27 03:49:38;;;;;;;48.72;16.67;;;;;;;2.12;88.92;101068.25;1088135;46;20030;-81
2022/11/27 03:50:58;;;;;;;48.83;16.55;;;;;;;1.96;89.37;101068.03;1088002;54;20038;-81
2022/11/27 03:52:07;;;;;;;47.70;15.10;;;;;;;1.88;89.73;101071.00;1088127;54;20054;-82
2022/11/27 03:53:21;;;;;;;23.02;13.20;;;;;;;1.85;90.04;101073.75;1088222;54;20031;-82
2022/11/27 03:54:32;;;;;;;46.67;15.00;;;;;;;1.82;89.66;101064.19;1088708;46;20049;-83
2022/11/27 03:55:41;;;;;;;51.88;15.82;;;;;;;1.79;89.74;101066.13;1088501;54;20021;-83
2022/11/27 03:56:51;;;;;;;35.42;14.75;;;;;;;1.80;90.18;101066.03;1088534;54;20078;-82
2022/11/27 03:57:58;;;;;;;62.80;15.00;;;;;;;1.77;89.87;101060.88;1090409;46;20023;-82
2022/11/27 03:59:09;;;;;;;66.45;16.25;;;;;;;1.68;90.33;101058.63;1088382;54;20038;-83
2022/11/27 04:00:12;;;;;;;48.67;15.95;;;;;;;1.68;90.69;101063.91;1088362;54;20022;-82
2022/11/27 04:01:21;;;;;;;46.50;14.20;;;;;;;1.63;90.87;101055.34;1088341;54;20022;-81
2022/11/27 04:02:30;;;;;;;66.95;15.07;;;;;;;1.58;91.08;101052.00;1088424;54;20018;-82
2022/11/27 04:03:34;;;;;;;80.63;16.67;;;;;;;1.49;91.11;101055.88;1088658;46;20018;-81
2022/11/27 04:04:36;;;;;;;33.22;12.50;;;;;;;1.60;91.44;101047.53;1088302;54;20031;-81
2022/11/27 04:05:41;;;;;;;27.08;12.07;;;;;;;1.63;91.14;101042.16;1089218;46;20038;-82
2022/11/27 04:06:45;;;;;;;18.23;11.27;;;;;;;1.75;91.24;101046.06;1088239;54;20015;-81
2022/11/27 04:07:50;;;;;;;21.58;11.57;;;;;;;1.82;90.95;101052.78;1088566;46;20436;-82
2022/11/27 04:08:51;;;;;;;15.77;10.93;;;;;;;1.88;90.52;101052.53;1088090;54;20014;-82
2022/11/27 04:09:55;;;;;;;18.60;12.05;;;;;;;1.90;90.06;101058.59;1088620;46;20031;-81
2022/11/27 04:11:00;;;;;;;37.60;13.88;;;;;;;1.90;89.74;101061.22;1088263;46;20018;-82
2022/11/27 04:12:01;;;;;;;60.72;14.20;;;;;;;1.78;89.71;101064.41;1087994;54;20038;-82
2022/11/27 04:13:05;;;;;;;24.05;12.52;;;;;;;1.79;90.17;101063.47;1088818;46;20075;-82
2022/11/27 04:14:07;;;;;;;17.75;11.90;;;;;;;1.81;90.10;101067.75;1088015;54;20027;-81
2022/11/27 04:15:13;;;;;;;23.88;12.68;;;;;;;1.85;90.34;101065.84;1088063;54;20033;-81
2022/11/27 04:16:14;;;;;;;28.17;13.45;;;;;;;1.81;90.37;101067.75;1087943;54;20042;-82
2022/11/27 04:17:18;;;;;;;49.10;14.23;;;;;;;1.74;90.14;101066.31;1087938;54;20019;-81
2022/11/27 04:18:20;;;;;;;90.97;14.77;;;;;;;1.69;90.33;101061.22;1087985;54;20034;-81
2022/11/27 04:19:24;;;;;;;44.60;13.77;;;;;;;1.71;90.21;101062.00;1091436;46;20021;-82
2022/11/27 04:20:26;;;;;;;23.55;12.25;;;;;;;1.77;90.28;101066.16;1089585;46;20025;-81
2022/11/27 04:21:30;;;;;;;27.40;11.48;;;;;;;1.86;89.97;101063.13;1088099;54;20022;-82
2022/11/27 04:22:34;;;;;;;73.97;14.10;;;;;;;1.80;89.15;101070.44;1087897;54;20026;-82
2022/11/27 04:23:39;;;;;;;35.78;13.10;;;;;;;1.76;89.26;101079.41;1090122;46;20014;-82
2022/11/27 04:24:41;;;;;;;20.25;10.98;;;;;;;1.80;89.62;101066.03;1088289;46;20027;-81
2022/11/27 04:25:45;;;;;;;42.53;12.20;;;;;;;1.84;89.36;101069.41;1087827;54;20015;-83
2022/11/27 04:26:46;;;;;;;16.08;10.55;;;;;;;1.84;89.18;101064.13;1088195;46;20015;-81
2022/11/27 04:27:51;;;;;;;17.75;10.18;;;;;;;1.89;89.34;101054.22;1087936;54;20010;-82
2022/11/27 04:28:53;;;;;;;16.35;9.93;;;;;;;1.90;89.10;101055.09;1088080;54;20030;-82
2022/11/27 04:29:57;;;;;;;17.83;10.27;;;;;;;1.94;89.13;101051.41;1087894;54;20090;-83
2022/11/27 04:30:59;;;;;;;13.55;10.68;;;;;;;1.97;89.20;101046.88;1087960;54;20026;-82
2022/11/27 04:32:03;;;;;;;11.10;8.52;;;;;;;2.03;89.02;101041.34;1089363;46;20030;-82
2022/11/27 04:33:07;;;;;;;79.13;12.77;;;;;;;1.79;87.67;101042.38;1090274;39;20233;-83
2022/11/27 04:34:09;;;;;;;47.17;12.57;;;;;;;1.68;88.19;101046.31;1087941;54;20034;-81
2022/11/27 04:35:13;;;;;;;42.13;12.38;;;;;;;1.66;88.42;101042.88;1087854;54;20052;-82
2022/11/27 04:36:14;;;;;;;84.90;12.57;;;;;;;1.54;87.94;101038.09;1087863;54;20030;-82
2022/11/27 04:37:19;;;;;;;26.52;11.02;;;;;;;1.52;88.79;101042.56;1087944;54;20081;-83
2022/11/27 04:38:23;;;;;;;23.15;10.50;;;;;;;1.50;89.06;101037.38;1088018;54;20041;-81
2022/11/27 04:39:27;;;;;;;66.60;12.18;;;;;;;1.55;89.12;101042.44;1089453;46;20031;-82
2022/11/27 04:40:29;;;;;;;78.57;13.23;;;;;;;1.52;88.70;101037.28;1087901;47;20034;-81
2022/11/27 04:42:38;;;;;;;75.55;12.52;;;;;;;1.39;88.62;101040.44;1083541;54;21169;-78
2022/11/27 04:43:39;;;;;;;47.13;11.23;;;;;;;1.42;89.08;101038.63;1084137;54;20050;-79
2022/11/27 04:44:43;;;;;;;49.25;11.70;;;;;;;1.38;88.68;101033.47;1084068;54;20062;-78
2022/11/27 04:45:48;;;;;;;59.47;12.48;;;;;;;1.30;88.77;101038.19;1083995;54;20050;-80
2022/11/27 04:46:49;;;;;;;102.63;13.88;;;;;;;1.25;88.65;101032.22;1084184;54;21271;-78
2022/11/27 04:47:53;;;;;;;13.98;9.15;;;;;;;1.32;89.26;101028.44;1084019;54;20580;-79
2022/11/27 04:48:55;;;;;;;69.07;12.43;;;;;;;1.23;89.23;101034.03;1084021;54;20162;-79
2022/11/27 04:49:59;;;;;;;118.35;14.88;;;;;;;1.12;89.47;101041.53;1083865;54;20042;-79
2022/11/27 04:51:00;;;;;;;60.08;12.90;;;;;;;1.15;89.60;101038.75;1084030;54;20131;-79
2022/11/27 04:52:05;;;;;;;16.88;10.25;;;;;;;1.20;89.88;101034.19;1084080;54;20062;-79
2022/11/27 04:53:07;;;;;;;32.83;10.07;;;;;;;1.22;89.77;101032.38;1084217;54;20042;-78
2022/11/27 04:54:13;;;;;;;30.05;10.77;;;;;;;1.19;89.41;101033.31;1083883;54;20038;-78
2022/11/27 04:55:15;;;;;;;11.48;9.13;;;;;;;1.30;89.79;101035.53;1084123;54;20049;-78
2022/11/27 04:56:19;;;;;;;27.75;10.15;;;;;;;1.31;89.33;101034.63;1084201;54;20087;-78
2022/11/27 04:57:20;;;;;;;13.15;8.38;;;;;;;1.40;89.14;101031.63;1084257;54;20090;-78
2022/11/27 04:58:25;;;;;;;11.35;8.38;;;;;;;1.43;88.86;101035.91;1084233;54;20038;-78
2022/11/27 04:59:26;;;;;;;13.52;7.85;;;;;;;1.44;88.77;101031.47;1083882;54;20042;-79
2022/11/27 05:00:30;;;;;;;19.70;9.20;;;;;;;1.47;88.66;101040.13;1083897;54;20045;-78
2022/11/27 05:01:32;;;;;;;15.80;8.63;;;;;;;1.48;88.58;101033.09;1083997;54;20046;-79
2022/11/27 05:02:36;;;;;;;20.88;8.88;;;;;;;1.47;88.47;101026.94;1084179;54;20119;-79
2022/11/27 05:03:37;;;;;;;11.88;8.68;;;;;;;1.49;88.24;101027.75;1083856;54;20046;-79
2022/11/27 05:04:41;;;;;;;39.67;10.13;;;;;;;1.41;87.80;101024.56;1084017;54;20038;-79
2022/11/27 05:06:05;;;;;;;20.98;9.40;;;;;;;1.48;88.01;101031.28;1084177;54;20031;-79
2022/11/27 05:07:20;;;;;;;10.25;7.60;;;;;;;1.50;88.15;101036.53;1083272;54;20038;-79
2022/11/27 05:08:37;;;;;;;11.35;8.63;;;;;;;1.54;87.98;101024.91;1083428;54;20061;-79
2022/11/27 05:09:56;;;;;;;13.00;9.10;;;;;;;1.58;88.03;101012.47;1083459;54;20137;-78
2022/11/27 05:11:13;;;;;;;11.48;7.60;;;;;;;1.61;87.77;101013.19;1083950;39;20630;-78